City Of Port Allen — WDD9053 — position and weather

sailwx.info

Track history (hours):
 
Tides and Currents Weather Stations Pressure Air Temp Water Temp Dewpoint Dewpoint Depression Visibility Wind Speed Wind Dir Waves Ship Positions

City Of Port Allen

Owner: Ingram Barge Company LLC, Nashville, TN. More information available from US FCC via Universal Licensing System and Coast Guard Vessel Documentation Center.

Last reported at 2017-Nov-19 18:39 UTC. Time now 2017-Nov-21 11:57 UTC.
Position N 29°56' W 093°07'.

Length 23 m; draft 2.3 m.

Type: Towing. MMSI: 367306270.

Date/timePositionNaut miles runAvg speedWind from/ knotsBaromVisibWave heightAir tempDewpointWater temp
2017-Nov-19 18:39N 29°56' W 093°07'1 3.6
2017-Nov-19 18:26N 29°56' W 093°08'2 3.5
2017-Nov-19 18:00N 29°56' W 093°10'2 3.6
2017-Nov-19 17:30N 29°58' W 093°11'1 2.5
2017-Nov-19 17:01N 29°59' W 093°12'2 3.3
2017-Nov-19 16:31N 29°60' W 093°13'2 3.1
2017-Nov-19 16:01N 30°01' W 093°14'1 2.9
2017-Nov-19 15:30N 30°02' W 093°15'1 3.0
2017-Nov-19 15:01N 30°04' W 093°16'2 3.5
2017-Nov-19 14:31N 30°05' W 093°17'1 1.6
2017-Nov-19 14:01N 30°05' W 093°18'1 2.4
2017-Nov-19 13:30N 30°06' W 093°19'0 0.2
2017-Nov-19 13:00N 30°06' W 093°19'0 0.0
2017-Nov-19 12:30N 30°06' W 093°19'0 0.0
2017-Nov-19 12:00N 30°06' W 093°19'0 0.0
2017-Nov-19 11:31N 30°06' W 093°19'0 0.0
2017-Nov-19 11:01N 30°06' W 093°19'0 0.0
2017-Nov-19 10:30N 30°06' W 093°19'0 0.0
2017-Nov-19 10:00N 30°06' W 093°19'2 4.0
2017-Nov-19 09:30N 30°04' W 093°21'1 3.0
2017-Nov-19 09:00N 30°04' W 093°22'0 0.0
2017-Nov-19 08:30N 30°04' W 093°22'0 0.0
2017-Nov-19 08:00N 30°04' W 093°22'0 0.1
2017-Nov-19 07:30N 30°04' W 093°22'0 0.1
2017-Nov-19 07:01N 30°04' W 093°22'1 1.3
2017-Nov-19 06:30N 30°04' W 093°21'1 2.6
2017-Nov-19 06:00N 30°05' W 093°20'0 0.1
2017-Nov-19 05:31N 30°04' W 093°20'0 0.0
2017-Nov-19 05:00N 30°04' W 093°20'0 0.3
2017-Nov-19 04:31N 30°04' W 093°20'1 2.7
2017-Nov-19 04:01N 30°04' W 093°22'0 0.8
2017-Nov-19 03:30N 30°04' W 093°22'1 2.7
2017-Nov-19 03:01N 30°04' W 093°24'3 5.8
2017-Nov-19 02:30N 30°04' W 093°27'3 5.8
2017-Nov-19 02:00N 30°04' W 093°31'78 3.5
2017-Nov-18 03:35N 29°29' W 094°52'1 4.5
2017-Nov-18 03:24N 29°30' W 094°52'2 4.7
2017-Nov-18 03:00N 29°31' W 094°53'2 4.6
2017-Nov-18 02:30N 29°33' W 094°55'2 4.7
2017-Nov-18 02:00N 29°35' W 094°56'2 4.7
2017-Nov-18 01:30N 29°37' W 094°58'3 5.0
2017-Nov-18 01:00N 29°40' W 094°58'2 4.8
2017-Nov-18 00:30N 29°42' W 094°60'2 4.1
2017-Nov-17 23:56N 29°44' W 095°01'2 4.8
2017-Nov-17 23:29N 29°45' W 095°04'3 0.3
2017-Nov-17 14:55N 29°47' W 095°04'1 0.5
2017-Nov-17 13:18N 29°47' W 095°05'0 0.0
2017-Nov-17 10:15N 29°47' W 095°05'1 0.7
2017-Nov-17 09:15N 29°46' W 095°05'2 5.5
2017-Nov-17 08:51N 29°44' W 095°03'2 5.7
2017-Nov-17 08:28N 29°43' W 095°01'3 6.7
2017-Nov-17 08:01N 29°41' W 094°59'4 7.2
2017-Nov-17 07:30N 29°37' W 094°57'4 7.3
2017-Nov-17 07:00N 29°34' W 094°55'4 7.6
2017-Nov-17 06:30N 29°31' W 094°53'71 5.0
2017-Nov-16 16:17N 30°04' W 093°40'2 8.3
2017-Nov-16 16:00N 30°04' W 093°38'4 7.4
2017-Nov-16 15:30N 30°04' W 093°33'3 6.9
2017-Nov-16 15:01N 30°04' W 093°30'3 6.9
2017-Nov-16 14:31N 30°04' W 093°26'3 6.6
2017-Nov-16 14:01N 30°04' W 093°22'2 3.5
2017-Nov-16 13:30N 30°05' W 093°20'0 0.5
2017-Nov-16 13:00N 30°04' W 093°20'1 1.6
2017-Nov-16 12:31N 30°05' W 093°20'0 0.0
2017-Nov-16 12:01N 30°05' W 093°20'0 0.0
2017-Nov-16 11:30N 30°05' W 093°20'0 0.0
2017-Nov-16 11:00N 30°05' W 093°20'0 0.0
2017-Nov-16 10:31N 30°05' W 093°20'0 0.0
2017-Nov-16 10:00N 30°05' W 093°20'0 0.0
2017-Nov-16 09:31N 30°05' W 093°20'0 0.0
2017-Nov-16 09:00N 30°05' W 093°20'0 0.0
2017-Nov-16 08:31N 30°05' W 093°20'1 1.5
2017-Nov-16 08:00N 30°04' W 093°20'0 0.0
2017-Nov-16 07:30N 30°04' W 093°20'0 0.6
2017-Nov-16 07:00N 30°05' W 093°20'1 1.1
2017-Nov-16 06:30N 30°05' W 093°20'1 1.1
2017-Nov-16 06:00N 30°05' W 093°20'1 1.1
2017-Nov-16 05:30N 30°05' W 093°20'1 1.2
2017-Nov-16 05:00N 30°05' W 093°20'0 0.1
2017-Nov-16 04:31N 30°05' W 093°20'1 1.3
2017-Nov-16 04:00N 30°05' W 093°20'0 0.0
2017-Nov-16 03:31N 30°05' W 093°20'1 2.9
2017-Nov-16 03:01N 30°06' W 093°18'1 2.0
2017-Nov-16 02:31N 30°05' W 093°17'1 1.7
2017-Nov-16 02:01N 30°05' W 093°17'0 0.1
2017-Nov-16 01:31N 30°05' W 093°17'0 0.1
2017-Nov-16 01:00N 30°05' W 093°17'0 0.1
2017-Nov-16 00:30N 30°05' W 093°17'0 0.5
2017-Nov-16 00:01N 30°04' W 093°16'1 1.7
2017-Nov-15 23:30N 30°04' W 093°16'2 3.8
2017-Nov-15 23:00N 30°02' W 093°15'2 3.2
2017-Nov-15 22:31N 30°01' W 093°14'2 3.3
2017-Nov-15 22:00N 29°59' W 093°13'2 3.6
2017-Nov-15 21:31N 29°58' W 093°11'2 3.7
2017-Nov-15 21:00N 29°56' W 093°10'2 3.1
2017-Nov-15 20:30N 29°56' W 093°08'2 3.3
2017-Nov-15 20:00N 29°56' W 093°06'2 3.5
2017-Nov-15 19:26N 29°56' W 093°04'1 1.6
2017-Nov-15 19:00N 29°56' W 093°03'0 0.0
2017-Nov-15 18:30N 29°56' W 093°03'21 2.3
2017-Nov-15 09:33N 29°56' W 092°39'0 0.6
2017-Nov-15 09:30N 29°56' W 092°39'15 1.7
2017-Nov-15 01:05N 29°52' W 092°23'0 1.7
2017-Nov-15 01:00N 29°52' W 092°23'1 2.3
2017-Nov-15 00:23N 29°51' W 092°22'1 3.2
2017-Nov-14 23:58N 29°51' W 092°20'1 2.6
2017-Nov-14 23:30N 29°50' W 092°19'1 2.8
2017-Nov-14 23:00N 29°50' W 092°18'1 2.4
2017-Nov-14 22:30N 29°49' W 092°17'1 2.5
2017-Nov-14 22:00N 29°48' W 092°15'1 2.1
2017-Nov-14 21:30N 29°48' W 092°14'1 2.5
2017-Nov-14 21:00N 29°47' W 092°13'1 1.7
2017-Nov-14 20:30N 29°47' W 092°12'2 3.2
2017-Nov-14 20:00N 29°47' W 092°10'2 3.1
2017-Nov-14 19:30N 29°47' W 092°09'1 2.8
2017-Nov-14 19:00N 29°47' W 092°07'1 2.9
2017-Nov-14 18:30N 29°48' W 092°05'1 2.1
2017-Nov-14 18:00N 29°48' W 092°04'1 2.7
2017-Nov-14 17:30N 29°49' W 092°03'1 2.7
2017-Nov-14 16:58N 29°49' W 092°01'10 2.7
2017-Nov-14 13:20N 29°50' W 091°50'77 2.1
2017-Nov-13 01:04N 30°05' W 093°18'0 0.0
2017-Nov-13 00:59N 30°05' W 093°18'0 0.7
2017-Nov-13 00:29N 30°05' W 093°18'1 1.0
2017-Nov-12 23:59N 30°06' W 093°18'0 0.0
2017-Nov-12 23:29N 30°06' W 093°18'0 0.3
2017-Nov-12 22:59N 30°06' W 093°18'2 3.0
2017-Nov-12 22:29N 30°05' W 093°20'0 0.0
2017-Nov-12 21:59N 30°05' W 093°20'0 0.0
2017-Nov-12 21:29N 30°05' W 093°20'0 0.0
2017-Nov-12 20:59N 30°05' W 093°20'0 0.0
2017-Nov-12 20:29N 30°05' W 093°20'0 0.1
2017-Nov-12 19:59N 30°05' W 093°20'0 0.0
2017-Nov-12 19:29N 30°05' W 093°20'2 3.9
2017-Nov-12 18:59N 30°04' W 093°21'8 6.0
2017-Nov-12 17:37N 30°04' W 093°31'  
Track history (hours):
 
Tides and Currents Weather Stations Pressure Air Temp Water Temp Dewpoint Dewpoint Depression Visibility Wind Speed Wind Dir Waves Ship Positions

City Of Port Allen

Owner: Ingram Barge Company LLC, Nashville, TN. More information available from US FCC via Universal Licensing System and Coast Guard Vessel Documentation Center.

Last reported at 2017-Nov-19 18:39 UTC. Time now 2017-Nov-21 11:57 UTC.
Position N 29°56' W 093°07'.

Length 23 m; draft 2.3 m.

Type: Towing. MMSI: 367306270.

Date/timePositionNaut miles runAvg speedWind from/ knotsBaromVisibWave heightAir tempDewpointWater temp
2017-Nov-19 18:39N 29°56' W 093°07'1 3.6
2017-Nov-19 18:26N 29°56' W 093°08'2 3.5
2017-Nov-19 18:00N 29°56' W 093°10'2 3.6
2017-Nov-19 17:30N 29°58' W 093°11'1 2.5
2017-Nov-19 17:01N 29°59' W 093°12'2 3.3
2017-Nov-19 16:31N 29°60' W 093°13'2 3.1
2017-Nov-19 16:01N 30°01' W 093°14'1 2.9
2017-Nov-19 15:30N 30°02' W 093°15'1 3.0
2017-Nov-19 15:01N 30°04' W 093°16'2 3.5
2017-Nov-19 14:31N 30°05' W 093°17'1 1.6
2017-Nov-19 14:01N 30°05' W 093°18'1 2.4
2017-Nov-19 13:30N 30°06' W 093°19'0 0.2
2017-Nov-19 13:00N 30°06' W 093°19'0 0.0
2017-Nov-19 12:30N 30°06' W 093°19'0 0.0
2017-Nov-19 12:00N 30°06' W 093°19'0 0.0
2017-Nov-19 11:31N 30°06' W 093°19'0 0.0
2017-Nov-19 11:01N 30°06' W 093°19'0 0.0
2017-Nov-19 10:30N 30°06' W 093°19'0 0.0
2017-Nov-19 10:00N 30°06' W 093°19'2 4.0
2017-Nov-19 09:30N 30°04' W 093°21'1 3.0
2017-Nov-19 09:00N 30°04' W 093°22'0 0.0
2017-Nov-19 08:30N 30°04' W 093°22'0 0.0
2017-Nov-19 08:00N 30°04' W 093°22'0 0.1
2017-Nov-19 07:30N 30°04' W 093°22'0 0.1
2017-Nov-19 07:01N 30°04' W 093°22'1 1.3
2017-Nov-19 06:30N 30°04' W 093°21'1 2.6
2017-Nov-19 06:00N 30°05' W 093°20'0 0.1
2017-Nov-19 05:31N 30°04' W 093°20'0 0.0
2017-Nov-19 05:00N 30°04' W 093°20'0 0.3
2017-Nov-19 04:31N 30°04' W 093°20'1 2.7
2017-Nov-19 04:01N 30°04' W 093°22'0 0.8
2017-Nov-19 03:30N 30°04' W 093°22'1 2.7
2017-Nov-19 03:01N 30°04' W 093°24'3 5.8
2017-Nov-19 02:30N 30°04' W 093°27'3 5.8
2017-Nov-19 02:00N 30°04' W 093°31'78 3.5
2017-Nov-18 03:35N 29°29' W 094°52'1 4.5
2017-Nov-18 03:24N 29°30' W 094°52'2 4.7
2017-Nov-18 03:00N 29°31' W 094°53'2 4.6
2017-Nov-18 02:30N 29°33' W 094°55'2 4.7
2017-Nov-18 02:00N 29°35' W 094°56'2 4.7
2017-Nov-18 01:30N 29°37' W 094°58'3 5.0
2017-Nov-18 01:00N 29°40' W 094°58'2 4.8
2017-Nov-18 00:30N 29°42' W 094°60'2 4.1
2017-Nov-17 23:56N 29°44' W 095°01'2 4.8
2017-Nov-17 23:29N 29°45' W 095°04'3 0.3
2017-Nov-17 14:55N 29°47' W 095°04'1 0.5
2017-Nov-17 13:18N 29°47' W 095°05'0 0.0
2017-Nov-17 10:15N 29°47' W 095°05'1 0.7
2017-Nov-17 09:15N 29°46' W 095°05'2 5.5
2017-Nov-17 08:51N 29°44' W 095°03'2 5.7
2017-Nov-17 08:28N 29°43' W 095°01'3 6.7
2017-Nov-17 08:01N 29°41' W 094°59'4 7.2
2017-Nov-17 07:30N 29°37' W 094°57'4 7.3
2017-Nov-17 07:00N 29°34' W 094°55'4 7.6
2017-Nov-17 06:30N 29°31' W 094°53'71 5.0
2017-Nov-16 16:17N 30°04' W 093°40'2 8.3
2017-Nov-16 16:00N 30°04' W 093°38'4 7.4
2017-Nov-16 15:30N 30°04' W 093°33'3 6.9
2017-Nov-16 15:01N 30°04' W 093°30'3 6.9
2017-Nov-16 14:31N 30°04' W 093°26'3 6.6
2017-Nov-16 14:01N 30°04' W 093°22'2 3.5
2017-Nov-16 13:30N 30°05' W 093°20'0 0.5
2017-Nov-16 13:00N 30°04' W 093°20'1 1.6
2017-Nov-16 12:31N 30°05' W 093°20'0 0.0
2017-Nov-16 12:01N 30°05' W 093°20'0 0.0
2017-Nov-16 11:30N 30°05' W 093°20'0 0.0
2017-Nov-16 11:00N 30°05' W 093°20'0 0.0
2017-Nov-16 10:31N 30°05' W 093°20'0 0.0
2017-Nov-16 10:00N 30°05' W 093°20'0 0.0
2017-Nov-16 09:31N 30°05' W 093°20'0 0.0
2017-Nov-16 09:00N 30°05' W 093°20'0 0.0
2017-Nov-16 08:31N 30°05' W 093°20'1 1.5
2017-Nov-16 08:00N 30°04' W 093°20'0 0.0
2017-Nov-16 07:30N 30°04' W 093°20'0 0.6
2017-Nov-16 07:00N 30°05' W 093°20'1 1.1
2017-Nov-16 06:30N 30°05' W 093°20'1 1.1
2017-Nov-16 06:00N 30°05' W 093°20'1 1.1
2017-Nov-16 05:30N 30°05' W 093°20'1 1.2
2017-Nov-16 05:00N 30°05' W 093°20'0 0.1
2017-Nov-16 04:31N 30°05' W 093°20'1 1.3
2017-Nov-16 04:00N 30°05' W 093°20'0 0.0
2017-Nov-16 03:31N 30°05' W 093°20'1 2.9
2017-Nov-16 03:01N 30°06' W 093°18'1 2.0
2017-Nov-16 02:31N 30°05' W 093°17'1 1.7
2017-Nov-16 02:01N 30°05' W 093°17'0 0.1
2017-Nov-16 01:31N 30°05' W 093°17'0 0.1
2017-Nov-16 01:00N 30°05' W 093°17'0 0.1
2017-Nov-16 00:30N 30°05' W 093°17'0 0.5
2017-Nov-16 00:01N 30°04' W 093°16'1 1.7
2017-Nov-15 23:30N 30°04' W 093°16'2 3.8
2017-Nov-15 23:00N 30°02' W 093°15'2 3.2
2017-Nov-15 22:31N 30°01' W 093°14'2 3.3
2017-Nov-15 22:00N 29°59' W 093°13'2 3.6
2017-Nov-15 21:31N 29°58' W 093°11'2 3.7
2017-Nov-15 21:00N 29°56' W 093°10'2 3.1
2017-Nov-15 20:30N 29°56' W 093°08'2 3.3
2017-Nov-15 20:00N 29°56' W 093°06'2 3.5
2017-Nov-15 19:26N 29°56' W 093°04'1 1.6
2017-Nov-15 19:00N 29°56' W 093°03'0 0.0
2017-Nov-15 18:30N 29°56' W 093°03'21 2.3
2017-Nov-15 09:33N 29°56' W 092°39'0 0.6
2017-Nov-15 09:30N 29°56' W 092°39'15 1.7
2017-Nov-15 01:05N 29°52' W 092°23'0 1.7
2017-Nov-15 01:00N 29°52' W 092°23'1 2.3
2017-Nov-15 00:23N 29°51' W 092°22'1 3.2
2017-Nov-14 23:58N 29°51' W 092°20'1 2.6
2017-Nov-14 23:30N 29°50' W 092°19'1 2.8
2017-Nov-14 23:00N 29°50' W 092°18'1 2.4
2017-Nov-14 22:30N 29°49' W 092°17'1 2.5
2017-Nov-14 22:00N 29°48' W 092°15'1 2.1
2017-Nov-14 21:30N 29°48' W 092°14'1 2.5
2017-Nov-14 21:00N 29°47' W 092°13'1 1.7
2017-Nov-14 20:30N 29°47' W 092°12'2 3.2
2017-Nov-14 20:00N 29°47' W 092°10'2 3.1
2017-Nov-14 19:30N 29°47' W 092°09'1 2.8
2017-Nov-14 19:00N 29°47' W 092°07'1 2.9
2017-Nov-14 18:30N 29°48' W 092°05'1 2.1
2017-Nov-14 18:00N 29°48' W 092°04'1 2.7
2017-Nov-14 17:30N 29°49' W 092°03'1 2.7
2017-Nov-14 16:58N 29°49' W 092°01'10 2.7
2017-Nov-14 13:20N 29°50' W 091°50'77 2.1
2017-Nov-13 01:04N 30°05' W 093°18'0 0.0
2017-Nov-13 00:59N 30°05' W 093°18'0 0.7
2017-Nov-13 00:29N 30°05' W 093°18'1 1.0
2017-Nov-12 23:59N 30°06' W 093°18'0 0.0
2017-Nov-12 23:29N 30°06' W 093°18'0 0.3
2017-Nov-12 22:59N 30°06' W 093°18'2 3.0
2017-Nov-12 22:29N 30°05' W 093°20'0 0.0
2017-Nov-12 21:59N 30°05' W 093°20'0 0.0
2017-Nov-12 21:29N 30°05' W 093°20'0 0.0
2017-Nov-12 20:59N 30°05' W 093°20'0 0.0
2017-Nov-12 20:29N 30°05' W 093°20'0 0.1
2017-Nov-12 19:59N 30°05' W 093°20'0 0.0
2017-Nov-12 19:29N 30°05' W 093°20'2 3.9
2017-Nov-12 18:59N 30°04' W 093°21'8 6.0
2017-Nov-12 17:37N 30°04' W 093°31'  

Dump ship's entire track history